Latest Coastal Weather Observations for Williamtown

IDN60701

Issued at 2:51 am EST Tuesday 28 June 2022 (issued every 10 minutes, with the page automatically refreshed every 10 minutes)

About coastal observations | Map of coastal stations | Coastal observations for NSW | Marine services | Other Formats
Station Details ID: 061078 Name: WILLIAMTOWN RAAF Lat: -32.79 Lon: 151.84 Height: 7.5 m
Data from the previous 72 hours. | See also: Recent months at Williamtown
Date/Time
EST
Wind Sea
Height
m
Swell Vis
km
Cloud Weather Temp
°C
Press
MSL
hPa
Rain since
9am
mm
Dir  Spd
kts
Gust
kts
Height
m
Period
s
Dir
28/02:30am WSW 8 10 - - - - 10 Partly cloudy - 8.4 1028.3 0.0
28/02:00am WSW 7 9 - - - - 10 Partly cloudy - 8.2 1028.4 0.0
28/01:30am W 8 10 - - - - 10 Partly cloudy - 8.3 1028.6 0.0
28/01:00am WSW 8 11 - - - - 10 Partly cloudy - 8.3 1028.5 0.0
28/12:30am WSW 11 15 - - - - 10 Partly cloudy - 8.6 1028.6 0.0
28/12:00am WSW 10 13 - - - - 10 Cloudy Showers 8.3 1028.4 0.0
 
Date/Time
EST
Wind Sea
Height
m
Swell Vis
km
Cloud Weather Temp
°C
Press
MSL
hPa
Rain since
9am
mm
Dir  Spd
kts
Gust
kts
Height
m
Period
s
Dir
27/11:30pm WSW 11 14 - - - - 10 Partly cloudy - 8.5 1028.7 0.0
27/11:00pm WSW 10 15 - - - - 10 Partly cloudy - 9.2 1028.9 0.0
27/10:30pm SW 11 16 - - - - 10 Partly cloudy - 10.0 1028.9 0.0
27/10:00pm SW 9 13 - - - - 10 - - 10.5 1028.4 0.0
27/09:30pm SW 13 18 - - - - 10 Partly cloudy - 11.1 1028.6 0.0
27/09:02pm SSW 15 27 - - - - 10 Partly cloudy - 11.5 1028.7 0.0
27/09:00pm SW 13 21 - - - - 10 Cloudy Showers 11.5 1028.7 0.0
27/08:30pm SSW 14 19 - - - - 10 Partly cloudy - 10.9 1028.2 0.0
27/08:00pm SSW 17 24 - - - - 10 Partly cloudy - 11.3 1028.1 0.0
27/07:34pm SSW 15 25 - - - - 10 Partly cloudy - 12.6 1028.0 0.0
27/07:30pm SSW 14 20 - - - - 10 Mostly clear - 12.6 1027.9 0.0
27/07:00pm SW 9 14 - - - - 10 Mostly clear - 12.1 1027.5 0.0
27/06:30pm SW 13 19 - - - - 10 - - 12.5 1027.0 0.0
27/06:00pm SW 15 20 - - - - 10 Partly cloudy - 13.2 1026.9 0.0
27/05:40pm SSW 15 25 - - - - 10 Mostly clear - 13.6 1026.8 0.0
27/05:30pm SSW 15 20 - - - - 10 Mostly clear - 13.5 1026.6 0.0
27/05:22pm SSW 17 27 - - - - 10 Mostly clear - 13.5 1026.6 0.0
27/05:00pm SSW 19 26 - - - - 10 Mostly clear - 13.9 1026.4 0.0
27/04:30pm SSW 18 28 - - - - 10 Partly cloudy - 14.4 1026.5 0.0
27/04:01pm SSW 18 28 - - - - 10 Cloudy - 14.0 1025.9 0.0
27/04:00pm SSW 19 28 - - - - 10 Cloudy - 14.0 1025.9 0.0
27/03:30pm SSW 20 26 - - - - 10 Mostly clear - 15.0 1025.2 0.0
27/03:17pm SSW 18 29 - - - - 10 Mostly clear - 15.1 1025.2 0.0
27/03:00pm SSW 18 25 - - - - 10 Cloudy Rain 14.4 1025.3 0.0
27/02:30pm S 11 18 - - - - 10 Mostly clear Showers 13.2 1025.0 0.0
27/02:00pm S 16 22 - - - - 10 Partly cloudy - 13.2 1025.0 0.0
27/01:39pm SSW 17 27 - - - - 10 Mostly clear Showers 15.1 1024.8 0.0
27/01:30pm SSW 18 27 - - - - 10 Mostly clear - 15.2 1024.8 0.0
27/01:23pm SSW 17 27 - - - - 10 Mostly clear - 16.1 1024.7 0.0
27/01:00pm SSW 16 23 - - - - 10 Mostly clear - 15.8 1024.6 0.0
27/12:45pm SSW 16 26 - - - - 10 Mostly clear - 16.7 1024.7 0.0
27/12:30pm SSW 15 20 - - - - 10 Mostly clear - 16.0 1024.7 0.0
27/12:00pm SW 17 22 - - - - 10 Cloudy - 15.3 1025.0 0.0
27/11:30am SW 15 19 - - - - 10 Partly cloudy - 15.4 1025.1 0.0
27/11:00am SW 16 22 - - - - 10 Partly cloudy - 15.6 1025.2 0.0
27/10:30am WSW 11 16 - - - - 10 Mostly clear - 14.9 1025.3 0.0
27/10:00am W 10 14 - - - - 10 Mostly clear - 14.3 1025.5 0.0
27/09:30am WNW 11 15 - - - - 10 Mostly clear - 12.8 1025.4 0.0
27/09:00am WNW 11 14 - - - - 10 Mostly clear - 12.0 1025.3 0.0
27/08:30am WNW 12 15 - - - - 10 Mostly clear - 11.2 1025.1 0.0
27/08:00am WNW 10 12 - - - - 10 Mostly clear - 9.9 1025.1 0.0
27/07:30am NW 9 11 - - - - 10 Mostly clear - 8.7 1025.1 0.0
27/07:00am WNW 9 10 - - - - 10 Mostly clear - 7.9 1024.8 0.0
27/06:30am WNW 9 12 - - - - 10 - - 8.6 1024.6 0.0
27/06:00am NW 9 10 - - - - 10 - - 8.1 1024.2 0.0
27/05:30am NW 9 9 - - - - 10 - - 8.2 1023.8 0.0
27/05:00am NW 8 8 - - - - 10 - - 8.9 1023.5 0.0
27/04:30am NW 7 8 - - - - 10 - - 9.0 1023.5 0.0
27/04:00am WNW 8 8 - - - - 10 - - 9.0 1023.5 0.0
27/03:30am W 5 6 - - - - 10 - - 8.7 1023.5 0.0
27/03:00am WNW 6 7 - - - - 10 Cloudy - 9.2 1023.5 0.0
27/02:30am NW 6 7 - - - - 10 Partly cloudy - 9.8 1023.9 0.0
27/02:00am NW 6 7 - - - - 10 Partly cloudy - 9.8 1024.2 0.0
27/01:30am NW 7 8 - - - - 10 - - 10.1 1024.4 0.0
27/01:00am WNW 7 8 - - - - 10 - - 9.6 1024.3 0.0
27/12:30am NW 7 8 - - - - 10 - - 9.8 1024.2 0.0
27/12:00am NW 7 8 - - - - 10 Cloudy - 9.7 1024.1 0.0
 
Date/Time
EST
Wind Sea
Height
m
Swell Vis
km
Cloud Weather Temp
°C
Press
MSL
hPa
Rain since
9am
mm
Dir  Spd
kts
Gust
kts
Height
m
Period
s
Dir
26/11:30pm NNW 4 7 - - - - 10 - - 9.7 1024.3 0.0
26/11:00pm NW 4 6 - - - - 10 - - 9.1 1024.5 0.0
26/10:30pm SW 4 6 - - - - 10 - - 9.0 1024.4 0.0
26/10:00pm NNW 4 4 - - - - 10 - - 9.0 1024.2 0.0
26/09:30pm CALM 0 1 - - - - 10 Partly cloudy - 9.4 1024.1 0.0
26/09:00pm WSW 3 5 - - - - 10 Partly cloudy - 8.9 1024.1 0.0
26/08:30pm NNE 3 5 - - - - 10 Partly cloudy - 9.9 1024.0 0.0
26/08:00pm CALM 0 0 - - - - 10 Partly cloudy - 10.6 1023.9 0.0
26/07:30pm CALM 0 1 - - - - 10 - - 11.4 1023.8 0.0
26/07:00pm N 1 3 - - - - 10 - - 11.5 1023.9 0.0
26/06:30pm CALM 0 0 - - - - 10 - - 11.5 1023.6 0.0
26/06:00pm N 4 4 - - - - 10 Partly cloudy - 12.6 1023.4 0.0
26/05:30pm CALM 0 0 - - - - 10 - - 13.7 1023.1 0.0
26/05:00pm NNW 4 4 - - - - 10 - - 15.5 1022.8 0.0
26/04:30pm NNW 6 7 - - - - 10 - - 16.9 1022.7 0.0
26/04:00pm NW 6 9 - - - - 10 - - 18.9 1022.5 0.0
26/03:30pm NW 8 10 - - - - 10 - - 19.7 1022.5 0.0
26/03:00pm WNW 7 10 - - - - 10 - - 20.1 1022.7 0.0
26/02:30pm WNW 9 12 - - - - 10 - - 20.1 1022.6 0.0
26/02:00pm NW 7 10 - - - - 10 - - 20.0 1022.6 0.0
26/01:30pm NW 7 10 - - - - 10 - - 20.1 1022.8 0.0
26/01:00pm WNW 10 13 - - - - 10 - - 19.1 1023.2 0.0
26/12:30pm NW 9 13 - - - - 10 - - 18.1 1023.8 0.0
26/12:00pm NW 9 13 - - - - 10 Partly cloudy - 17.7 1024.2 0.0
26/11:30am NW 8 11 - - - - 10 - - 16.5 1024.8 0.0
26/11:00am WNW 9 12 - - - - 10 - - 15.1 1025.1 0.0
26/10:30am WNW 7 9 - - - - 10 - - 14.3 1025.4 0.0
26/10:00am NW 9 10 - - - - 10 - - 13.7 1025.7 0.0
26/09:30am NW 9 13 - - - - 10 - - 12.5 1025.6 0.0
26/09:00am NW 9 12 - - - - 10 - - 11.3 1025.6 0.0
26/08:30am NW 10 12 - - - - 10 - - 10.1 1025.6 0.0
26/08:00am NW 10 14 - - - - 10 - - 9.4 1025.6 0.0
26/07:30am NW 12 14 - - - - 10 - - 8.6 1025.4 0.0
26/07:00am NW 9 13 - - - - 10 - - 8.3 1025.2 0.0
26/06:30am NW 9 12 - - - - 10 - - 8.4 1024.8 0.0
26/06:00am NW 8 9 - - - - 10 - - 7.8 1024.5 0.0
26/05:30am NW 7 9 - - - - 10 - - 8.2 1024.2 0.0
26/05:00am NW 7 8 - - - - 10 - - 7.5 1024.0 0.0
26/04:30am NW 8 10 - - - - 10 - - 8.0 1023.8 0.0
26/04:00am NW 7 8 - - - - 10 - - 7.6 1023.7 0.0
26/03:30am NW 6 8 - - - - 10 - - 7.6 1023.7 0.0
26/03:00am WNW 6 7 - - - - 10 - - 7.4 1023.8 0.0
26/02:30am NW 6 7 - - - - 10 - - 8.8 1023.7 0.0
26/02:00am WNW 8 8 - - - - 10 - - 8.4 1023.8 0.0
26/01:30am NW 6 7 - - - - 10 - - 7.7 1023.7 0.0
26/01:00am NW 7 8 - - - - 10 - - 8.1 1023.8 0.0
26/12:30am NW 6 7 - - - - 10 - - 8.1 1023.7 0.0
26/12:00am NW 5 6 - - - - 10 - - 7.4 1023.7 0.0
 
Date/Time
EST
Wind Sea
Height
m
Swell Vis
km
Cloud Weather Temp
°C
Press
MSL
hPa
Rain since
9am
mm
Dir  Spd
kts
Gust
kts
Height
m
Period
s
Dir
25/11:30pm CALM 0 3 - - - - 10 - - 6.6 1023.7 0.0
25/11:00pm CALM 0 0 - - - - 10 - - 7.6 1023.7 0.0
25/10:30pm WNW 3 4 - - - - 10 - - 7.7 1023.7 0.0
25/10:00pm NW 3 4 - - - - 10 - - 8.3 1023.6 0.0
25/09:30pm NNW 2 4 - - - - 10 - - 9.1 1023.5 0.0
25/09:00pm NNW 1 3 - - - - 10 - - 9.1 1023.4 0.0
25/08:30pm CALM 0 0 - - - - 10 - - 9.3 1023.5 0.0
25/08:00pm CALM 0 0 - - - - 10 - - 9.4 1023.2 0.0
25/07:30pm CALM 0 0 - - - - 10 - - 10.4 1023.0 0.0
25/07:00pm N 4 5 - - - - 10 - - 11.5 1022.6 0.0
25/06:30pm CALM 0 1 - - - - 10 - - 13.4 1022.4 0.0
25/06:00pm NW 2 4 - - - - 10 - - 14.8 1022.0 0.0
25/05:30pm NW 7 8 - - - - 10 - - 15.2 1021.5 0.0
25/05:00pm WNW 7 8 - - - - 10 - - 15.4 1021.4 0.0
25/04:30pm WNW 10 13 - - - - 10 - - 17.7 1021.1 0.0
25/04:00pm WNW 14 18 - - - - 10 - - 19.0 1021.0 0.0
25/03:30pm WNW 13 19 - - - - 10 - - 19.6 1020.8 0.0
25/03:00pm WNW 10 16 - - - - 10 - - 19.9 1020.7 0.0
25/02:30pm WNW 14 18 - - - - 10 - - 19.8 1020.4 0.0
25/02:00pm WNW 14 19 - - - - 10 - - 19.9 1020.6 0.0
25/01:30pm WNW 18 23 - - - - 10 - - 19.5 1020.6 0.0
25/01:00pm WNW 18 24 - - - - 10 - - 19.3 1020.8 0.0
25/12:30pm WNW 16 21 - - - - 10 - - 19.0 1021.1 0.0
25/12:00pm WNW 15 22 - - - - 10 - - 18.4 1021.6 0.0
25/11:30am WNW 18 25 - - - - 10 - - 18.2 1022.0 0.0
25/11:00am WNW 16 22 - - - - 10 - - 17.6 1022.4 0.0
25/10:30am WNW 18 25 - - - - 10 - - 16.6 1022.5 0.0
25/10:00am WNW 15 20 - - - - 10 - - 15.8 1022.6 0.0
25/09:30am WNW 13 18 - - - - 10 - - 14.8 1022.7 0.0
25/09:00am WNW 13 19 - - - - 10 - - 13.7 1022.5 0.0
25/08:30am WNW 13 17 - - - - 10 - - 12.4 1022.4 0.0
25/08:00am WNW 10 15 - - - - 10 - - 11.1 1022.3 0.0
25/07:30am WNW 8 10 - - - - 10 - - 9.9 1022.0 0.0
25/07:00am WNW 8 11 - - - - 10 - - 9.9 1021.9 0.0
25/06:30am NW 10 13 - - - - 10 - - 10.2 1021.6 0.0
25/06:00am WNW 11 14 - - - - 10 - - 10.1 1021.1 0.0
25/05:30am WNW 12 15 - - - - 10 - - 10.1 1020.7 0.0
25/05:00am WNW 8 9 - - - - 10 - - 9.3 1020.4 0.0
25/04:30am WNW 8 10 - - - - 10 - - 9.9 1020.1 0.0
25/04:00am NW 9 11 - - - - 10 - - 10.1 1019.9 0.0
25/03:30am WNW 9 13 - - - - 10 - - 10.6 1019.9 0.0
25/03:00am WNW 9 13 - - - - 10 - - 11.1 1019.9 0.0

Other formats

Comma delimited format used in spreadsheet applications
http://www.bom.gov.au/fwo/IDN60701/IDN60701.94776.axf

JavaScript Object Notation format (JSON) in row-major order
http://www.bom.gov.au/fwo/IDN60701/IDN60701.94776.json

Data quality

Most of these data are generated automatically and are frequently updated. Quality checks on data are not normally performed. It is possible for incorrect values to appear. Refer to information at About Latest Weather Observations and please check the disclaimer before using these data.